Cheltenham, Maryland
Current Conditions -  °F | °C
As of 5:58 AM on Tuesday 21 Oct 2014 (Local Time) from KADW Reporting Station
Clear Clear  
Wind Chill: 52°   Ceiling: Unl
Heat Index: 52°   Visibility: 10mi
Dew Point: 47°   Wind: 5mph
Humidity: 83%   Direction: 200°SSW
Pressure: 29.86"   Gusts: NA
Location:  38.74°N, 76.83°W
Report Text: KADW 210958Z AUTO 20004KT 10SM CLR 11/08 A2986 RMK AO2 SLP118 T01090081 $
Loading
Personal Weather Stations






























Interactive Weather Map
Tropical Storm Tracking
New forecast layout! Learn more

10-Day Weather Forecast

Advertisements
Track Severe Weather on mobile